Terminal Aerodrome Forecast
Issued by NWS

Home | Current Version | Previous Version | Text Only | Print | Product List | Glossary On
Versions: 1 2 3 4 5 6 7 8 9 10 11 12 13 14 15 16 17 18 19 20 21 22 23
000
FTUS46 KPQR 241726
TAFONP
TAF
KONP 241726Z 2418/2518 23011KT P6SM -SHRA SCT025 BKN040 BKN060
      TEMPO 2418/2421 6SM SHRAGS BKN025 BKN040
     FM242100 23010G18KT P6SM -SHRAGS SCT025 BKN035 BKN050
     FM250400 20009KT P6SM -SHRA SCT025 BKN045
     FM251000 16005KT P6SM -SHRA BKN025 BKN050=

USA.gov is the U.S. government's official web portal to all federal, state and local government web resources and services.